Time;durP1;ratioP1;P1;durP2;ratioP2;P2;SDS_P1;SDS_P2;PMS_P1;PMS_P2;Temp;Humidity;BMP_temperature;BMP_pressure;BME280_temperature;BME280_humidity;BME280_pressure;Samples;Min_cycle;Max_cycle;Signal;HPM_P1;HPM_P2
2022/08/10 00:01:45;;;;;;;;;;;25.10;92.60;;;;;;5053371;28;20053;-72
2022/08/10 00:04:11;;;;;;;5.38;4.13;;;25.20;92.70;;;;;;5052747;28;19970;-71
2022/08/10 00:06:40;;;;;;;6.68;4.32;;;25.20;92.70;;;;;;5052743;28;20457;-72
2022/08/10 00:09:06;;;;;;;6.82;4.20;;;25.20;92.60;;;;;;5052545;28;20051;-72
2022/08/10 00:11:32;;;;;;;4.65;3.78;;;25.20;92.50;;;;;;5052829;28;20526;-73
2022/08/10 00:13:58;;;;;;;4.57;3.97;;;25.30;92.40;;;;;;5052423;28;20036;-71
2022/08/10 00:16:24;;;;;;;5.78;4.05;;;25.30;92.30;;;;;;5052633;28;20025;-71
2022/08/10 00:18:50;;;;;;;6.10;3.97;;;25.40;92.10;;;;;;5052619;28;20047;-72
2022/08/10 00:21:16;;;;;;;6.45;4.25;;;25.40;92.00;;;;;;5052093;28;20374;-71
2022/08/10 00:23:42;;;;;;;8.63;4.20;;;25.50;92.10;;;;;;5052128;28;20052;-71
2022/08/10 00:26:08;;;;;;;6.47;4.10;;;25.50;92.00;;;;;;5052217;28;20045;-72
2022/08/10 00:28:34;;;;;;;5.85;4.10;;;25.50;92.00;;;;;;5052111;28;20021;-72
2022/08/10 00:31:01;;;;;;;6.00;4.50;;;25.50;92.00;;;;;;5052125;28;20025;-71
2022/08/10 00:33:27;;;;;;;5.50;4.00;;;25.50;92.00;;;;;;5052253;28;20109;-71
2022/08/10 00:35:53;;;;;;;5.20;3.85;;;25.40;92.10;;;;;;5052125;28;20492;-71
2022/08/10 00:38:19;;;;;;;5.10;4.30;;;25.40;92.20;;;;;;5052071;28;20104;-71
2022/08/10 00:40:45;;;;;;;6.43;4.20;;;25.30;92.20;;;;;;5051864;28;20028;-71
2022/08/10 00:43:11;;;;;;;8.48;4.28;;;25.30;92.70;;;;;;5051870;28;20099;-71
2022/08/10 00:45:44;;;;;;;4.90;4.05;;;25.30;92.40;;;;;;5052111;28;20430;-72
2022/08/10 00:48:10;;;;;;;5.47;3.85;;;25.30;92.40;;;;;;5052067;28;20021;-71
2022/08/10 00:50:37;;;;;;;6.43;4.53;;;25.30;92.20;;;;;;5052177;28;20021;-71
2022/08/10 00:53:03;;;;;;;;;;;25.40;92.40;;;;;;5052260;28;20113;-71
2022/08/10 00:55:29;;;;;;;6.90;4.03;;;25.40;92.10;;;;;;5051345;28;19947;-71
2022/08/10 00:57:56;;;;;;;6.50;4.15;;;25.40;92.10;;;;;;5051715;28;20043;-71
2022/08/10 01:00:23;;;;;;;6.82;3.92;;;25.50;92.00;;;;;;5051310;28;20033;-71
2022/08/10 01:02:50;;;;;;;5.25;3.80;;;25.50;91.90;;;;;;5051714;28;20158;-72
2022/08/10 01:05:18;;;;;;;5.45;4.10;;;25.50;91.80;;;;;;5051439;28;20128;-71
2022/08/10 01:08:03;;;;;;;5.20;4.20;;;25.50;91.90;;;;;;5051567;28;20079;-71
2022/08/10 01:10:42;;;;;;;7.43;4.05;;;25.50;92.00;;;;;;5051513;28;20032;-71
2022/08/10 01:13:20;;;;;;;4.22;3.65;;;25.40;92.00;;;;;;5051210;28;20382;-71
2022/08/10 01:15:58;;;;;;;7.25;3.90;;;25.50;92.00;;;;;;5051227;28;20024;-71
2022/08/10 01:18:36;;;;;;;6.53;3.88;;;25.40;91.90;;;;;;5051124;28;20041;-71
2022/08/10 01:21:16;;;;;;;6.45;4.05;;;25.50;92.20;;;;;;5051260;28;20069;-71
2022/08/10 01:23:46;;;;;;;7.53;3.97;;;25.40;91.90;;;;;;5050992;28;20144;-71
2022/08/10 01:26:43;;;;;;;6.65;3.80;;;25.40;91.80;;;;;;5050184;28;20162;-72
2022/08/10 01:29:16;;;;;;;4.80;3.70;;;25.50;91.70;;;;;;5051105;28;20079;-71
2022/08/10 01:31:48;;;;;;;6.55;4.22;;;25.50;91.70;;;;;;5051059;28;20025;-72
2022/08/10 01:34:21;;;;;;;7.28;3.65;;;25.60;91.60;;;;;;5051099;28;20045;-70
2022/08/10 01:36:54;;;;;;;4.97;3.78;;;25.70;91.40;;;;;;5051395;28;20119;-70
2022/08/10 01:39:27;;;;;;;5.15;3.72;;;25.70;91.30;;;;;;5051145;28;20113;-71
2022/08/10 01:41:56;;;;;;;5.57;3.90;;;25.70;91.30;;;;;;5050921;28;20536;-71
2022/08/10 01:44:44;;;;;;;6.60;3.90;;;25.60;91.40;;;;;;5050855;28;20083;-72
2022/08/10 01:50:09;;;;;;;5.45;4.30;;;25.30;92.10;;;;;;5050950;28;20099;-71
2022/08/10 01:52:38;;;;;;;5.13;4.32;;;25.20;92.40;;;;;;5050747;28;20079;-72
2022/08/10 01:55:07;;;;;;;6.82;4.18;;;25.10;92.40;;;;;;5050459;28;20029;-71
2022/08/10 01:57:34;;;;;;;6.38;4.20;;;25.00;92.70;;;;;;5050431;28;20064;-71
2022/08/10 02:00:01;;;;;;;10.52;4.68;;;24.90;92.90;;;;;;5050898;28;20082;-71
2022/08/10 02:02:29;;;;;;;8.23;4.70;;;24.80;92.90;;;;;;5050599;28;20066;-71
2022/08/10 02:04:56;;;;;;;6.57;4.82;;;24.60;93.20;;;;;;5050678;28;20064;-71
2022/08/10 02:07:26;;;;;;;7.90;4.68;;;24.60;93.30;;;;;;5050427;28;20025;-71
2022/08/10 02:09:55;;;;;;;6.70;4.20;;;24.50;93.40;;;;;;5050374;28;20032;-71
2022/08/10 02:12:27;;;;;;;5.32;4.45;;;24.40;93.50;;;;;;5050533;28;20022;-71
2022/08/10 02:14:57;;;;;;;5.18;4.38;;;24.40;93.70;;;;;;5050795;28;20373;-71
2022/08/10 02:17:50;;;;;;;7.13;4.50;;;24.30;93.70;;;;;;5050431;28;20021;-72
2022/08/10 02:20:20;;;;;;;5.97;4.65;;;24.30;93.80;;;;;;5047110;28;20449;-72
2022/08/10 02:22:51;;;;;;;6.63;4.60;;;24.20;93.90;;;;;;5050059;28;20445;-71
2022/08/10 02:25:20;;;;;;;6.07;4.50;;;24.10;94.10;;;;;;5050278;28;20056;-71
2022/08/10 02:27:48;;;;;;;6.40;4.60;;;24.20;94.40;;;;;;5050571;28;20021;-71
2022/08/10 02:30:15;;;;;;;7.10;4.57;;;24.20;94.50;;;;;;5050249;28;20410;-71
2022/08/10 02:32:42;;;;;;;10.45;4.63;;;24.30;94.60;;;;;;5050147;28;20087;-71
2022/08/10 02:35:12;;;;;;;10.02;5.05;;;24.30;94.60;;;;;;5050080;28;20029;-72
2022/08/10 02:37:40;;;;;;;5.45;4.55;;;24.40;94.70;;;;;;5050646;28;20123;-72
2022/08/10 02:40:09;;;;;;;6.00;4.68;;;24.40;94.60;;;;;;5054008;28;20343;-71
2022/08/10 02:43:13;;;;;;;5.70;4.70;;;24.60;94.70;;;;;;5053963;28;20090;-71
2022/08/10 02:45:46;;;;;;;7.05;4.70;;;24.70;94.50;;;;;;5052771;28;20048;-71
2022/08/10 02:48:18;;;;;;;8.10;4.88;;;24.80;94.50;;;;;;5053779;28;20061;-71
2022/08/10 02:50:53;;;;;;;5.90;4.88;;;24.80;94.50;;;;;;5053751;28;20105;-71
2022/08/10 02:53:29;;;;;;;6.15;4.05;;;24.80;94.30;;;;;;5054921;28;20071;-71
2022/08/10 02:55:55;;;;;;;;;;;25.00;94.10;;;;;;5053964;28;20043;-72
2022/08/10 02:58:38;;;;;;;6.15;4.55;;;25.00;94.00;;;;;;5053554;28;20337;-72
2022/08/10 03:01:09;;;;;;;7.78;4.60;;;25.10;94.00;;;;;;5051270;28;20419;-72
2022/08/10 03:03:46;;;;;;;5.28;4.47;;;25.10;94.00;;;;;;5051203;28;20029;-72
2022/08/10 03:06:18;;;;;;;5.38;4.30;;;25.10;94.00;;;;;;5053974;28;20063;-72
2022/08/10 03:08:45;;;;;;;6.90;4.50;;;25.20;93.90;;;;;;5054160;28;20017;-72
2022/08/10 03:11:23;;;;;;;6.20;4.38;;;25.20;93.80;;;;;;5053649;28;20040;-72
2022/08/10 03:13:51;;;;;;;6.38;4.90;;;25.30;93.70;;;;;;5054093;28;20025;-72
2022/08/10 03:16:20;;;;;;;5.18;4.28;;;25.30;93.70;;;;;;5053683;28;20064;-72
2022/08/10 03:18:47;;;;;;;6.65;4.82;;;25.20;93.80;;;;;;5053642;28;20033;-72
2022/08/10 03:21:15;;;;;;;5.95;4.65;;;25.20;93.90;;;;;;5053935;28;20040;-72
2022/08/10 03:23:43;;;;;;;9.45;4.75;;;25.10;93.90;;;;;;5054068;28;20079;-72
2022/08/10 03:26:15;;;;;;;5.15;4.50;;;25.00;94.00;;;;;;5053968;28;20052;-72
2022/08/10 03:28:42;;;;;;;6.03;4.20;;;24.70;94.20;;;;;;5053881;28;20025;-72
2022/08/10 03:31:08;;;;;;;7.40;4.95;;;24.40;94.40;;;;;;5054286;28;20167;-72
2022/08/10 03:33:37;;;;;;;6.93;4.78;;;24.30;94.70;;;;;;5054036;28;20028;-72
2022/08/10 03:36:05;;;;;;;8.10;4.75;;;24.20;94.90;;;;;;5053910;28;20055;-71
2022/08/10 03:38:32;;;;;;;5.32;4.72;;;24.10;95.20;;;;;;5053911;28;20516;-72
2022/08/10 03:41:03;;;;;;;5.60;4.13;;;24.00;95.30;;;;;;5053605;28;20021;-72
2022/08/10 03:43:30;;;;;;;7.03;4.60;;;23.90;95.60;;;;;;5053909;28;20108;-72
2022/08/10 03:46:02;;;;;;;10.50;4.50;;;23.80;95.80;;;;;;5053488;28;20468;-71
2022/08/10 03:48:29;;;;;;;6.07;4.78;;;23.70;96.00;;;;;;5053191;28;20075;-72
2022/08/10 03:50:57;;;;;;;6.93;4.82;;;23.60;96.10;;;;;;5053745;28;20029;-71
2022/08/10 03:53:23;;;;;;;5.72;4.75;;;23.60;96.30;;;;;;5053659;28;20017;-71
2022/08/10 03:55:50;;;;;;;6.78;4.50;;;23.60;96.30;;;;;;5053349;28;20142;-72
2022/08/10 03:58:17;;;;;;;5.70;4.68;;;23.60;96.30;;;;;;5053457;28;20154;-72
2022/08/10 04:00:44;;;;;;;5.68;4.20;;;23.70;96.30;;;;;;5053765;28;20124;-70
2022/08/10 04:03:11;;;;;;;8.13;4.78;;;23.70;96.30;;;;;;5053312;28;20134;-71
2022/08/10 04:05:37;;;;;;;8.27;4.45;;;23.70;96.20;;;;;;5052777;28;20033;-71
2022/08/10 04:08:04;;;;;;;6.72;4.97;;;23.80;96.20;;;;;;5052724;28;20116;-71
2022/08/10 04:10:30;;;;;;;6.75;4.70;;;23.90;96.10;;;;;;5053159;28;20433;-71
2022/08/10 04:12:56;;;;;;;5.82;5.00;;;23.90;96.00;;;;;;5052805;28;20079;-71
2022/08/10 04:15:23;;;;;;;6.07;4.82;;;23.90;96.00;;;;;;5053144;28;20501;-71
2022/08/10 04:17:50;;;;;;;7.45;4.85;;;23.90;96.00;;;;;;5053741;28;20381;-71
2022/08/10 04:20:16;;;;;;;;;;;24.00;96.20;;;;;;5054372;28;20117;-71
2022/08/10 04:22:43;;;;;;;9.48;4.88;;;24.10;96.20;;;;;;5053966;28;19975;-71
2022/08/10 04:25:12;;;;;;;6.40;4.75;;;24.00;96.30;;;;;;5054229;28;20049;-71
2022/08/10 04:27:38;;;;;;;7.88;4.70;;;24.10;96.30;;;;;;5053872;28;20025;-71
2022/08/10 04:30:04;;;;;;;6.82;5.00;;;24.10;96.30;;;;;;5053934;28;20370;-71
2022/08/10 04:32:30;;;;;;;;;;;24.20;96.30;;;;;;5053904;28;20025;-71
2022/08/10 04:34:58;;;;;;;6.38;4.90;;;24.20;96.20;;;;;;5053318;28;19915;-71
2022/08/10 04:37:24;;;;;;;6.55;5.05;;;24.10;96.50;;;;;;5054030;28;20052;-70
2022/08/10 04:39:50;;;;;;;;;;;24.10;96.80;;;;;;5054526;28;20033;-71
2022/08/10 04:42:17;;;;;;;7.85;5.20;;;24.10;97.00;;;;;;5054577;28;19960;-71
2022/08/10 04:44:43;;;;;;;8.40;4.90;;;24.10;97.10;;;;;;5052517;28;20083;-71
2022/08/10 04:47:09;;;;;;;9.55;5.63;;;24.10;97.10;;;;;;5053831;28;20025;-71
2022/08/10 04:49:35;;;;;;;8.90;5.18;;;24.20;97.00;;;;;;5054244;28;20109;-71
2022/08/10 04:52:02;;;;;;;7.60;5.18;;;24.30;97.10;;;;;;5053891;28;20029;-71
2022/08/10 04:54:28;;;;;;;9.02;5.00;;;24.40;97.00;;;;;;5053528;28;20021;-71
2022/08/10 04:56:54;;;;;;;6.22;4.95;;;24.60;96.80;;;;;;5053699;28;20103;-71
2022/08/10 04:59:20;;;;;;;8.82;5.07;;;24.70;96.60;;;;;;5053375;28;20070;-71
2022/08/10 05:01:46;;;;;;;8.60;4.93;;;24.80;96.40;;;;;;5052629;28;20142;-72
2022/08/10 05:04:12;;;;;;;9.25;5.25;;;24.80;96.40;;;;;;5053984;28;20032;-72
2022/08/10 05:06:38;;;;;;;7.50;4.82;;;24.80;96.20;;;;;;5053712;28;20021;-71
2022/08/10 05:09:05;;;;;;;6.47;4.78;;;24.90;96.30;;;;;;5053534;28;20051;-72
2022/08/10 05:11:31;;;;;;;8.95;5.00;;;24.90;96.00;;;;;;5053434;28;20021;-72
2022/08/10 05:13:57;;;;;;;6.72;4.90;;;25.00;95.90;;;;;;5053062;28;20029;-71
2022/08/10 05:16:23;;;;;;;7.78;4.78;;;25.00;95.70;;;;;;5052854;28;20432;-71
2022/08/10 05:18:49;;;;;;;6.78;4.68;;;25.10;95.50;;;;;;5053360;28;20025;-72
2022/08/10 05:21:15;;;;;;;9.50;4.70;;;25.50;95.20;;;;;;5051270;28;20025;-72
2022/08/10 05:23:41;;;;;;;8.23;4.80;;;26.50;94.10;;;;;;5053211;28;20082;-72
2022/08/10 05:26:07;;;;;;;6.85;4.40;;;27.80;92.40;;;;;;5053371;28;20397;-72
2022/08/10 05:28:33;;;;;;;8.23;4.30;;;28.80;90.90;;;;;;5052831;28;20031;-72
2022/08/10 05:30:59;;;;;;;10.00;4.10;;;29.50;89.40;;;;;;5051512;28;20025;-72
2022/08/10 05:33:25;;;;;;;8.55;3.88;;;30.40;87.70;;;;;;5053254;28;20021;-72
2022/08/10 05:35:51;;;;;;;7.07;3.67;;;31.20;84.90;;;;;;5053207;28;20033;-72
2022/08/10 05:38:19;;;;;;;8.43;3.50;;;31.80;82.90;;;;;;5053498;28;20024;-72
2022/08/10 05:40:48;;;;;;;10.60;3.50;;;32.90;81.00;;;;;;5053410;28;20017;-72
2022/08/10 05:43:21;;;;;;;13.18;4.00;;;33.80;78.90;;;;;;5052821;28;20087;-72
2022/08/10 05:45:49;;;;;;;7.28;3.40;;;34.60;76.70;;;;;;5053466;28;20485;-72
2022/08/10 05:48:15;;;;;;;11.52;3.10;;;35.10;75.30;;;;;;5052929;28;20066;-72
2022/08/10 05:50:41;;;;;;;8.77;3.15;;;35.60;74.90;;;;;;5052786;28;20055;-73
2022/08/10 05:53:10;;;;;;;7.70;3.38;;;35.80;73.30;;;;;;5052230;28;20027;-73
2022/08/10 05:55:37;;;;;;;9.60;3.60;;;35.90;72.30;;;;;;5052317;28;20044;-72
2022/08/10 05:58:03;;;;;;;11.90;3.22;;;35.40;72.90;;;;;;5051566;28;20045;-72
2022/08/10 06:00:32;;;;;;;12.20;3.58;;;35.20;73.60;;;;;;5052402;28;20477;-72
2022/08/10 06:03:07;;;;;;;14.05;3.45;;;35.70;73.10;;;;;;5051651;28;20097;-72
2022/08/10 06:05:38;;;;;;;4.15;2.70;;;36.40;71.60;;;;;;5052546;28;20044;-72
2022/08/10 06:08:20;;;;;;;10.88;3.05;;;37.20;70.50;;;;;;5051538;28;20057;-72
2022/08/10 06:10:47;;;;;;;22.48;3.90;;;37.90;68.70;;;;;;5052657;28;20021;-72
2022/08/10 06:16:04;;;;;;;14.60;4.22;;;37.90;68.20;;;;;;5052315;28;20496;-72
2022/08/10 06:18:31;;;;;;;6.32;3.10;;;37.20;68.90;;;;;;5051708;28;20056;-72
2022/08/10 06:20:59;;;;;;;5.50;3.17;;;36.90;69.50;;;;;;5052493;28;20029;-72
2022/08/10 06:23:27;;;;;;;5.07;2.97;;;37.50;69.40;;;;;;5051405;28;20381;-72
2022/08/10 06:25:54;;;;;;;8.25;3.45;;;37.90;66.90;;;;;;5052014;28;20145;-72
2022/08/10 06:28:22;;;;;;;7.57;3.00;;;38.60;65.80;;;;;;5051767;28;20346;-72
2022/08/10 06:30:51;;;;;;;8.55;3.42;;;38.50;66.40;;;;;;5052638;28;20051;-72
2022/08/10 06:33:21;;;;;;;6.35;3.00;;;38.90;65.00;;;;;;5052211;28;20021;-72
2022/08/10 06:35:54;;;;;;;8.25;2.83;;;39.50;64.70;;;;;;5052375;28;20124;-71
2022/08/10 06:38:23;;;;;;;8.68;3.10;;;39.60;64.00;;;;;;5052225;28;20027;-71
2022/08/10 06:40:54;;;;;;;5.05;2.95;;;40.20;63.50;;;;;;5051938;28;20098;-72
2022/08/10 06:43:24;;;;;;;4.70;2.80;;;40.10;63.00;;;;;;5052288;28;20033;-71
2022/08/10 06:45:56;;;;;;;5.55;2.50;;;40.50;62.00;;;;;;5051957;28;20463;-72
2022/08/10 06:48:27;;;;;;;4.05;2.22;;;41.40;60.80;;;;;;5052487;28;20036;-72
2022/08/10 06:50:57;;;;;;;3.65;2.00;;;42.10;59.40;;;;;;5052517;28;20040;-72
2022/08/10 06:53:30;;;;;;;3.05;1.80;;;42.40;58.70;;;;;;5052538;28;20025;-72
2022/08/10 06:56:03;;;;;;;4.50;2.30;;;42.80;58.50;;;;;;5052378;28;20033;-72
2022/08/10 06:58:50;;;;;;;5.07;2.22;;;43.00;57.70;;;;;;5051970;28;20087;-72
2022/08/10 07:01:24;;;;;;;7.50;2.40;;;43.50;57.10;;;;;;5052461;28;20203;-72
2022/08/10 07:04:14;;;;;;;4.75;2.20;;;43.60;57.10;;;;;;5052075;28;20068;-72
2022/08/10 07:06:44;;;;;;;6.93;2.78;;;44.20;56.30;;;;;;5051984;28;20040;-72
2022/08/10 07:09:15;;;;;;;4.40;2.03;;;44.40;55.90;;;;;;5051916;28;20032;-72
2022/08/10 07:11:49;;;;;;;4.20;2.20;;;44.40;54.80;;;;;;5052352;28;20020;-72
2022/08/10 07:14:18;;;;;;;4.30;2.15;;;44.60;55.30;;;;;;5052294;28;20029;-72
2022/08/10 07:16:46;;;;;;;3.72;2.00;;;44.30;55.30;;;;;;5051884;28;20082;-72
2022/08/10 07:19:13;;;;;;;10.85;2.53;;;44.10;55.10;;;;;;5051756;28;20114;-72
2022/08/10 07:21:45;;;;;;;7.20;2.70;;;44.30;55.20;;;;;;5052045;28;20116;-72
2022/08/10 07:24:14;;;;;;;6.05;2.55;;;44.60;55.30;;;;;;5052889;28;20163;-72
2022/08/10 07:26:46;;;;;;;4.50;2.50;;;44.80;54.80;;;;;;5055052;28;20055;-72
2022/08/10 07:29:15;;;;;;;8.43;2.53;;;44.50;55.00;;;;;;5055874;28;20024;-72
2022/08/10 07:31:42;;;;;;;8.85;2.92;;;44.10;55.30;;;;;;5055198;28;20501;-72
2022/08/10 07:34:10;;;;;;;6.28;2.60;;;43.40;56.00;;;;;;5055152;28;20021;-72
2022/08/10 07:36:39;;;;;;;7.35;2.83;;;42.30;56.80;;;;;;5054977;28;20025;-72
2022/08/10 07:39:06;;;;;;;7.07;2.70;;;41.40;58.40;;;;;;5055224;28;20521;-72
2022/08/10 07:41:36;;;;;;;4.53;2.63;;;40.20;58.60;;;;;;5054860;28;20021;-72
2022/08/10 07:44:04;;;;;;;6.88;2.60;;;39.60;59.60;;;;;;5054883;28;20033;-71
2022/08/10 07:46:34;;;;;;;8.18;2.92;;;38.80;60.90;;;;;;5054590;28;20024;-72
2022/08/10 07:49:08;;;;;;;5.15;3.03;;;38.20;62.10;;;;;;5054499;28;20054;-72
2022/08/10 07:51:36;;;;;;;8.13;2.72;;;37.70;63.60;;;;;;5054295;28;20372;-72
2022/08/10 07:54:07;;;;;;;8.25;3.60;;;37.40;64.20;;;;;;5053567;28;20056;-72
2022/08/10 07:56:36;;;;;;;7.28;3.10;;;37.20;63.90;;;;;;5054058;28;20025;-73
2022/08/10 07:59:08;;;;;;;7.22;4.93;;;37.10;63.90;;;;;;5053740;28;20035;-73
2022/08/10 08:01:39;;;;;;;7.05;3.10;;;37.20;63.90;;;;;;5053729;28;20544;-72
2022/08/10 08:04:08;;;;;;;6.05;3.10;;;36.90;63.60;;;;;;5053908;28;20029;-72
2022/08/10 08:06:36;;;;;;;11.48;3.67;;;36.50;64.10;;;;;;5053646;28;20052;-72
2022/08/10 08:09:03;;;;;;;10.63;3.63;;;36.30;64.60;;;;;;5053611;28;20075;-72
2022/08/10 08:11:30;;;;;;;6.97;3.15;;;36.40;65.60;;;;;;5053740;28;20028;-72
2022/08/10 08:14:01;;;;;;;7.38;3.00;;;36.50;65.10;;;;;;5053356;28;20035;-72
2022/08/10 08:16:31;;;;;;;5.57;2.83;;;36.70;64.90;;;;;;5054015;28;20060;-72
2022/08/10 08:18:58;;;;;;;7.93;3.10;;;36.80;65.40;;;;;;5054540;28;20060;-72
2022/08/10 08:21:26;;;;;;;9.85;4.32;;;37.00;64.90;;;;;;5053986;28;20527;-72
2022/08/10 08:24:15;;;;;;;12.48;3.58;;;36.90;64.60;;;;;;5054118;28;20037;-72
2022/08/10 08:26:44;;;;;;;7.65;3.42;;;36.30;65.10;;;;;;5052841;28;20080;-72
2022/08/10 08:29:12;;;;;;;8.77;3.20;;;35.90;66.20;;;;;;5054276;28;20090;-72
2022/08/10 08:31:39;;;;;;;9.18;3.53;;;35.30;67.30;;;;;;5053748;28;20037;-72
2022/08/10 08:34:07;;;;;;;7.75;3.55;;;35.40;67.80;;;;;;5053887;28;20021;-72
2022/08/10 08:36:38;;;;;;;5.68;3.00;;;35.60;67.20;;;;;;5053891;28;20033;-71
2022/08/10 08:39:04;;;;;;;8.05;3.65;;;35.70;68.10;;;;;;5054394;28;20029;-72
2022/08/10 08:41:50;;;;;;;6.13;2.95;;;35.70;67.90;;;;;;5053970;28;20048;-72
2022/08/10 08:44:47;;;;;;;4.72;3.17;;;35.90;67.80;;;;;;5052384;28;20068;-72
2022/08/10 08:47:46;;;;;;;7.43;3.20;;;36.10;69.10;;;;;;5052338;28;20109;-70
2022/08/10 08:50:31;;;;;;;4.63;3.30;;;36.20;67.40;;;;;;5053816;28;20170;-72
2022/08/10 08:53:21;;;;;;;5.47;3.03;;;36.00;68.00;;;;;;5053392;28;20052;-72
2022/08/10 08:56:17;;;;;;;5.22;3.38;;;35.60;67.90;;;;;;5053468;28;20291;-71
2022/08/10 08:59:07;;;;;;;9.85;3.50;;;35.60;68.70;;;;;;5053402;28;20063;-71
2022/08/10 09:02:10;;;;;;;7.10;3.33;;;35.50;70.30;;;;;;5053146;28;20507;-72
2022/08/10 09:05:15;;;;;;;6.78;3.10;;;35.50;71.10;;;;;;5053043;28;20041;-71
2022/08/10 09:07:42;;;;;;;;;;;35.60;73.40;;;;;;5053457;28;20020;-72
2022/08/10 09:10:20;;;;;;;14.52;3.30;;;35.80;72.80;;;;;;5052973;28;19932;-71
2022/08/10 09:13:28;;;;;;;5.85;3.33;;;35.90;72.20;;;;;;5052939;28;20135;-72
2022/08/10 09:16:05;;;;;;;6.47;3.40;;;35.70;72.60;;;;;;5031249;28;20116;-72
2022/08/10 09:18:42;;;;;;;5.57;3.33;;;35.10;75.60;;;;;;5031064;28;20025;-71
2022/08/10 09:21:32;;;;;;;8.13;4.13;;;35.10;76.00;;;;;;5031005;28;20463;-73
2022/08/10 09:24:19;;;;;;;13.23;3.35;;;35.10;76.00;;;;;;5030796;28;20494;-71
2022/08/10 09:26:50;;;;;;;6.85;3.25;;;34.80;78.60;;;;;;5030461;28;20067;-71
2022/08/10 09:29:28;;;;;;;4.75;3.15;;;34.90;78.20;;;;;;5030304;28;20026;-71
2022/08/10 09:32:17;;;;;;;7.57;3.80;;;35.00;77.80;;;;;;5030697;28;20029;-71
2022/08/10 09:35:02;;;;;;;5.18;3.33;;;34.90;77.90;;;;;;5030432;28;20041;-71
2022/08/10 09:37:47;;;;;;;10.38;3.35;;;35.10;77.90;;;;;;5030438;28;20253;-71
2022/08/10 09:40:35;;;;;;;6.18;3.28;;;35.20;78.60;;;;;;5030138;28;20045;-71
2022/08/10 09:43:22;;;;;;;7.72;3.80;;;35.20;78.60;;;;;;5029609;28;20137;-72
2022/08/10 09:45:51;;;;;;;9.27;4.07;;;35.00;78.90;;;;;;5033562;28;20060;-72
2022/08/10 09:48:42;;;;;;;5.65;3.55;;;34.90;79.10;;;;;;5051010;28;20095;-72
2022/08/10 09:51:23;;;;;;;7.45;4.38;;;34.70;79.00;;;;;;5051673;28;20075;-71
2022/08/10 09:53:59;;;;;;;10.77;3.80;;;34.70;79.20;;;;;;5051946;28;20033;-72
2022/08/10 09:56:39;;;;;;;6.22;3.63;;;34.50;80.10;;;;;;5051903;28;20119;-72
2022/08/10 09:59:13;;;;;;;13.27;3.80;;;34.50;80.00;;;;;;5052436;28;20029;-71
2022/08/10 10:02:33;;;;;;;11.75;3.65;;;34.40;80.60;;;;;;5052340;28;20067;-71
2022/08/10 10:05:17;;;;;;;9.00;3.72;;;33.90;81.30;;;;;;5030152;28;20038;-71
2022/08/10 10:07:51;;;;;;;8.43;3.63;;;33.90;81.80;;;;;;5030178;28;20053;-72
2022/08/10 10:10:29;;;;;;;8.75;3.70;;;34.00;81.50;;;;;;5029839;28;20055;-72
2022/08/10 10:13:09;;;;;;;6.22;3.65;;;34.20;81.50;;;;;;5029599;28;20040;-71
2022/08/10 10:16:23;;;;;;;9.18;3.85;;;34.20;82.60;;;;;;5029851;28;20049;-72
2022/08/10 10:19:03;;;;;;;33.58;4.85;;;34.00;82.80;;;;;;4990401;28;20045;-72
2022/08/10 10:21:45;;;;;;;5.63;3.70;;;34.10;83.20;;;;;;5030207;28;20037;-72
2022/08/10 10:24:19;;;;;;;8.10;4.15;;;34.30;83.10;;;;;;5030189;28;20037;-72
2022/08/10 10:27:02;;;;;;;8.55;3.88;;;34.20;83.50;;;;;;5029546;28;20064;-72
2022/08/10 10:29:33;;;;;;;6.13;3.70;;;34.10;84.20;;;;;;5030585;28;20029;-72
2022/08/10 10:32:11;;;;;;;8.45;4.07;;;34.00;84.50;;;;;;5030457;28;20037;-72
2022/08/10 10:34:43;;;;;;;7.60;3.90;;;33.70;84.90;;;;;;5030181;28;20113;-71
2022/08/10 10:37:10;;;;;;;9.05;4.30;;;33.70;86.00;;;;;;5030137;28;20060;-72
2022/08/10 10:39:42;;;;;;;6.10;3.70;;;33.80;86.10;;;;;;5049342;28;20033;-71
2022/08/10 10:42:19;;;;;;;10.35;4.40;;;33.70;86.50;;;;;;5051721;28;20060;-75
2022/08/10 10:44:55;;;;;;;7.40;3.67;;;33.90;86.50;;;;;;5051932;28;20033;-72
2022/08/10 10:47:36;;;;;;;;;;;34.00;86.20;;;;;;5052045;28;20408;-72
2022/08/10 10:50:12;;;;;;;8.18;3.90;;;33.90;87.00;;;;;;5051793;28;19905;-72
2022/08/10 10:53:04;;;;;;;7.53;4.00;;;33.70;87.80;;;;;;5051733;28;20029;-72
2022/08/10 10:55:46;;;;;;;5.63;3.90;;;33.80;88.20;;;;;;5051593;28;20048;-71
2022/08/10 10:58:24;;;;;;;6.82;3.95;;;33.70;88.30;;;;;;5051412;28;20477;-71
2022/08/10 11:01:06;;;;;;;7.57;3.88;;;33.70;88.40;;;;;;5055230;28;20029;-72
2022/08/10 11:03:51;;;;;;;6.53;3.65;;;33.90;88.70;;;;;;5055992;28;20079;-72
2022/08/10 11:06:44;;;;;;;7.28;3.42;;;34.20;87.80;;;;;;5055818;28;20048;-72
2022/08/10 11:09:36;;;;;;;13.65;3.72;;;34.20;87.60;;;;;;5055750;28;20444;-72
2022/08/10 11:12:18;;;;;;;7.15;3.50;;;34.20;87.70;;;;;;5045204;28;20041;-72
2022/08/10 11:14:59;;;;;;;6.47;3.30;;;34.20;86.60;;;;;;5055114;28;20154;-71
2022/08/10 11:17:32;;;;;;;8.50;3.78;;;34.40;87.10;;;;;;5056060;28;20021;-72
2022/08/10 11:20:19;;;;;;;9.45;3.50;;;33.80;87.80;;;;;;5055791;28;20036;-71
2022/08/10 11:23:09;;;;;;;9.48;3.17;;;34.00;88.40;;;;;;5055526;28;20059;-71
2022/08/10 11:25:46;;;;;;;11.52;3.50;;;34.20;86.40;;;;;;5055164;28;20523;-72
2022/08/10 11:28:28;;;;;;;8.27;3.38;;;34.30;86.90;;;;;;5055768;28;20102;-72
2022/08/10 11:30:54;;;;;;;7.97;3.40;;;34.40;87.30;;;;;;5055740;28;20029;-71
2022/08/10 11:33:27;;;;;;;;;;;34.40;86.80;;;;;;5055536;28;20025;-72
2022/08/10 11:36:00;;;;;;;10.27;3.45;;;34.50;86.70;;;;;;5055766;28;20364;-72
2022/08/10 11:38:51;;;;;;;7.18;3.65;;;34.30;87.70;;;;;;5055390;28;20029;-72
2022/08/10 11:41:40;;;;;;;10.55;3.63;;;34.30;87.90;;;;;;5053692;28;20125;-72
2022/08/10 11:44:39;;;;;;;4.93;3.22;;;34.10;88.40;;;;;;5054875;28;20044;-71
2022/08/10 11:47:16;;;;;;;8.48;3.72;;;33.90;89.10;;;;;;5055398;28;20025;-71
2022/08/10 11:49:54;;;;;;;9.50;3.42;;;33.80;89.70;;;;;;5055401;28;20495;-72
2022/08/10 11:52:38;;;;;;;9.48;3.90;;;33.60;90.20;;;;;;5054887;28;20373;-72
2022/08/10 11:55:19;;;;;;;6.88;3.88;;;33.50;90.60;;;;;;5054822;28;20024;-72
2022/08/10 11:57:47;;;;;;;7.53;3.92;;;33.40;90.90;;;;;;5055100;28;20032;-71
2022/08/10 12:00:54;;;;;;;9.68;4.13;;;33.50;91.10;;;;;;5053804;28;20082;-72
2022/08/10 12:03:21;;;;;;;10.35;4.15;;;33.60;91.10;;;;;;5054379;28;20048;-72
2022/08/10 12:05:51;;;;;;;9.15;4.00;;;33.30;91.30;;;;;;5053948;28;20037;-72
2022/08/10 12:08:18;;;;;;;7.15;3.80;;;33.10;91.90;;;;;;5054815;28;20071;-72
2022/08/10 12:10:49;;;;;;;6.72;4.28;;;32.70;92.50;;;;;;5052923;28;20029;-73
2022/08/10 12:14:00;;;;;;;8.82;3.90;;;32.80;92.70;;;;;;5054558;28;20025;-71
2022/08/10 12:16:30;;;;;;;7.25;4.40;;;32.80;92.70;;;;;;5032633;28;20028;-71
2022/08/10 12:19:03;;;;;;;8.68;4.68;;;32.80;92.80;;;;;;5032817;28;20500;-71
2022/08/10 12:21:43;;;;;;;8.80;4.43;;;32.80;92.70;;;;;;5033100;28;20077;-72
2022/08/10 12:24:45;;;;;;;5.75;3.92;;;32.80;92.70;;;;;;5032755;28;20435;-72
2022/08/10 12:27:22;;;;;;;7.15;4.20;;;33.00;92.40;;;;;;5027406;28;20057;-71
2022/08/10 12:29:52;;;;;;;5.32;3.47;;;32.90;92.40;;;;;;5032822;28;20484;-71
2022/08/10 12:32:55;;;;;;;7.05;3.90;;;32.90;92.20;;;;;;5031986;28;20033;-72
2022/08/10 12:35:47;;;;;;;6.93;3.70;;;32.90;92.40;;;;;;5032023;28;20041;-72
2022/08/10 12:38:30;;;;;;;7.53;4.00;;;32.60;92.90;;;;;;5015612;28;20060;-71
2022/08/10 12:40:59;;;;;;;10.75;4.07;;;32.50;92.90;;;;;;5032405;28;20037;-72
2022/08/10 12:43:34;;;;;;;12.18;4.30;;;32.30;93.50;;;;;;5031929;28;20099;-71
2022/08/10 12:46:15;;;;;;;6.93;5.03;;;32.30;93.80;;;;;;5016606;28;20457;-71
2022/08/10 12:48:55;;;;;;;6.50;3.83;;;32.70;93.40;;;;;;5054323;28;20092;-72
2022/08/10 12:51:27;;;;;;;6.85;3.80;;;32.70;93.20;;;;;;5054586;28;20409;-72
2022/08/10 12:54:10;;;;;;;6.93;3.50;;;32.80;92.30;;;;;;5053548;28;20040;-72
2022/08/10 12:56:46;;;;;;;7.88;3.50;;;32.90;91.80;;;;;;5054329;28;20441;-71
2022/08/10 12:59:13;;;;;;;4.47;3.67;;;32.80;91.60;;;;;;5054238;28;20032;-72
2022/08/10 13:01:42;;;;;;;7.03;3.67;;;32.80;91.50;;;;;;5053630;28;20079;-71
2022/08/10 13:04:13;;;;;;;9.25;3.80;;;32.80;91.60;;;;;;5053620;28;20032;-71
2022/08/10 13:06:45;;;;;;;6.10;3.80;;;33.00;91.70;;;;;;5054448;28;20028;-71
2022/08/10 13:09:13;;;;;;;8.35;4.07;;;33.00;92.40;;;;;;5054053;28;20065;-71
2022/08/10 13:11:39;;;;;;;6.43;3.70;;;33.30;92.60;;;;;;5053434;28;20028;-71
2022/08/10 13:14:41;;;;;;;6.20;3.47;;;33.30;92.40;;;;;;5053554;28;20025;-70
2022/08/10 13:17:09;;;;;;;5.70;3.75;;;33.50;92.10;;;;;;5053566;28;20119;-71
2022/08/10 13:19:40;;;;;;;5.97;3.75;;;33.50;92.60;;;;;;5053458;28;20029;-71
2022/08/10 13:22:08;;;;;;;6.00;3.83;;;33.40;93.00;;;;;;5053147;28;20032;-71
2022/08/10 13:24:40;;;;;;;5.90;3.83;;;33.30;93.20;;;;;;5053392;28;20583;-71
2022/08/10 13:27:10;;;;;;;9.45;4.10;;;33.40;93.60;;;;;;5053309;28;20630;-71